Time;durP1;ratioP1;P1;durP2;ratioP2;P2;SDS_P1;SDS_P2;PMS_P1;PMS_P2;Temp;Humidity;BMP_temperature;BMP_pressure;BME280_temperature;BME280_humidity;BME280_pressure;Samples;Min_cycle;Max_cycle;Signal;HPM_P1;HPM_P2
2023/03/04 00:01:37;;;;;;;26.30;17.73;;;1.50;99.90;;;;;;5010446;28;20463;-79
2023/03/04 00:04:04;;;;;;;30.57;16.50;;;1.40;99.90;;;;;;4995719;28;20854;-79
2023/03/04 00:06:32;;;;;;;35.03;20.30;;;1.40;99.90;;;;;;4997650;28;20471;-79
2023/03/04 00:08:59;;;;;;;28.93;17.77;;;1.40;99.90;;;;;;4998266;28;20520;-79
2023/03/04 00:11:25;;;;;;;35.27;18.30;;;1.30;99.90;;;;;;5003757;28;20487;-79
2023/03/04 00:13:53;;;;;;;31.83;18.13;;;1.30;99.90;;;;;;5052740;28;20516;-79
2023/03/04 00:16:19;;;;;;;28.73;16.47;;;1.10;99.90;;;;;;5020134;28;20515;-79
2023/03/04 00:18:48;;;;;;;32.00;18.60;;;1.10;99.90;;;;;;5017070;28;20905;-78
2023/03/04 00:21:15;;;;;;;41.43;21.73;;;1.00;99.90;;;;;;4999605;28;20451;-79
2023/03/04 00:23:42;;;;;;;38.63;20.20;;;1.00;99.90;;;;;;4999000;28;20467;-79
2023/03/04 00:26:09;;;;;;;30.77;21.13;;;1.10;99.90;;;;;;5002494;28;20584;-78
2023/03/04 00:28:37;;;;;;;33.23;20.83;;;1.10;99.90;;;;;;4991843;28;20554;-78
2023/03/04 00:31:04;;;;;;;31.40;16.80;;;1.10;99.90;;;;;;5002626;28;20994;-78
2023/03/04 00:33:32;;;;;;;25.20;17.57;;;1.10;99.90;;;;;;5007884;28;20529;-78
2023/03/04 00:36:00;;;;;;;29.00;15.60;;;1.20;99.90;;;;;;5003308;28;20447;-78
2023/03/04 00:38:27;;;;;;;30.37;17.17;;;1.00;99.90;;;;;;5002730;28;20463;-78
2023/03/04 00:40:55;;;;;;;34.10;16.70;;;1.00;99.90;;;;;;4997528;28;20798;-78
2023/03/04 00:43:22;;;;;;;26.03;16.90;;;0.90;99.90;;;;;;5057175;28;20458;-79
2023/03/04 00:45:49;;;;;;;34.80;17.80;;;0.90;99.90;;;;;;5026985;28;20535;-78
2023/03/04 00:48:16;;;;;;;30.53;17.30;;;0.90;99.90;;;;;;5027105;28;20459;-78
2023/03/04 00:50:43;;;;;;;30.23;19.10;;;1.00;99.90;;;;;;4998956;28;20514;-78
2023/03/04 00:53:12;;;;;;;30.47;16.30;;;1.00;99.90;;;;;;5036959;28;20458;-78
2023/03/04 00:55:39;;;;;;;33.80;16.00;;;1.00;99.90;;;;;;5036990;28;20494;-78
2023/03/04 00:58:07;;;;;;;33.80;17.17;;;1.00;99.90;;;;;;5003536;28;20526;-78
2023/03/04 01:00:34;;;;;;;23.30;15.23;;;1.00;99.90;;;;;;5002729;28;20547;-79
2023/03/04 01:03:01;;;;;;;29.20;17.37;;;1.00;99.90;;;;;;5016359;28;21039;-78
2023/03/04 01:05:28;;;;;;;25.63;15.13;;;0.90;99.90;;;;;;4999806;28;20459;-78
2023/03/04 01:07:54;;;;;;;28.20;16.00;;;0.90;99.90;;;;;;4996292;28;21121;-78
2023/03/04 01:10:23;;;;;;;32.60;16.87;;;0.90;99.90;;;;;;5015938;28;20486;-78
2023/03/04 01:12:50;;;;;;;30.53;18.50;;;1.00;99.90;;;;;;5011525;28;20527;-78
2023/03/04 01:15:17;;;;;;;28.83;16.80;;;1.00;99.90;;;;;;5003578;28;20864;-78
2023/03/04 01:17:44;;;;;;;33.63;16.43;;;0.90;99.90;;;;;;4999399;28;20934;-78
2023/03/04 01:20:12;;;;;;;38.47;17.37;;;0.90;99.90;;;;;;4999565;28;20467;-78
2023/03/04 01:22:39;;;;;;;30.33;17.50;;;0.90;99.90;;;;;;5024338;28;20442;-78
2023/03/04 01:25:08;;;;;;;40.10;18.93;;;0.90;99.90;;;;;;5021567;28;20516;-78
2023/03/04 01:27:36;;;;;;;35.23;19.27;;;0.90;99.90;;;;;;4999290;28;20484;-78
2023/03/04 01:30:04;;;;;;;29.87;16.50;;;1.00;99.90;;;;;;4999161;28;20580;-79
2023/03/04 01:32:31;;;;;;;32.83;18.40;;;1.00;99.90;;;;;;5032422;28;20443;-78
2023/03/04 01:34:58;;;;;;;29.80;17.00;;;0.90;99.90;;;;;;5017837;28;20516;-78
2023/03/04 01:37:25;;;;;;;38.97;18.27;;;0.80;99.90;;;;;;4998688;28;20463;-78
2023/03/04 01:39:52;;;;;;;38.50;16.50;;;0.80;99.90;;;;;;4999620;28;20455;-78
2023/03/04 01:42:21;;;;;;;34.97;17.10;;;0.80;99.90;;;;;;4992076;28;20485;-78
2023/03/04 01:44:51;;;;;;;32.43;15.83;;;0.70;99.90;;;;;;5078350;28;20499;-78
2023/03/04 01:47:19;;;;;;;32.57;18.17;;;0.70;99.90;;;;;;5041863;28;20442;-78
2023/03/04 01:49:49;;;;;;;27.20;15.57;;;0.60;99.90;;;;;;5040494;28;20459;-78
2023/03/04 01:52:16;;;;;;;40.10;17.93;;;0.60;99.90;;;;;;5002009;28;20946;-78
2023/03/04 01:54:43;;;;;;;30.43;17.90;;;0.40;99.90;;;;;;4999207;28;20548;-78
2023/03/04 01:57:17;;;;;;;29.00;17.07;;;0.40;99.90;;;;;;5000949;28;20519;-79
2023/03/04 01:59:45;;;;;;;30.80;14.50;;;0.40;99.90;;;;;;5001221;28;20852;-78
2023/03/04 02:02:14;;;;;;;30.93;15.83;;;0.50;99.90;;;;;;4996783;28;20537;-78
2023/03/04 02:04:42;;;;;;;32.20;17.30;;;0.50;99.90;;;;;;5043822;28;20455;-79
2023/03/04 02:07:09;;;;;;;36.13;19.00;;;0.60;99.90;;;;;;5028664;28;20540;-79
2023/03/04 02:09:36;;;;;;;31.27;16.87;;;0.70;99.90;;;;;;4992775;28;20529;-79
2023/03/04 02:12:04;;;;;;;32.30;16.43;;;0.80;99.90;;;;;;5010700;28;21110;-79
2023/03/04 02:14:31;;;;;;;32.00;17.23;;;0.80;99.90;;;;;;5002194;28;20494;-79
2023/03/04 02:16:58;;;;;;;33.27;17.10;;;0.70;99.90;;;;;;5002247;28;20523;-79
2023/03/04 02:19:40;;;;;;;35.53;17.77;;;0.60;99.90;;;;;;5004955;28;20504;-79
2023/03/04 02:22:08;;;;;;;33.47;18.77;;;0.70;99.90;;;;;;5015342;28;20539;-79
2023/03/04 02:24:41;;;;;;;31.17;20.20;;;0.70;99.90;;;;;;5061122;28;20519;-79
2023/03/04 02:27:09;;;;;;;31.73;18.33;;;0.70;99.90;;;;;;4999889;28;20467;-79
2023/03/04 02:29:36;;;;;;;36.17;19.70;;;0.70;99.90;;;;;;5002974;28;20463;-79
2023/03/04 02:32:03;;;;;;;36.00;19.23;;;0.70;99.90;;;;;;5010914;28;20526;-78
2023/03/04 02:34:33;;;;;;;34.17;18.17;;;0.70;99.90;;;;;;5007551;28;20470;-78
2023/03/04 02:37:01;;;;;;;40.37;17.90;;;0.70;99.90;;;;;;5003858;28;20512;-78
2023/03/04 02:39:32;;;;;;;35.40;17.60;;;0.70;99.90;;;;;;4995974;28;20475;-78
2023/03/04 02:42:00;;;;;;;36.87;17.97;;;0.70;99.90;;;;;;4994662;28;20459;-78
2023/03/04 02:44:31;;;;;;;32.07;18.07;;;0.60;99.90;;;;;;5000307;28;20451;-78
2023/03/04 02:46:59;;;;;;;32.80;17.13;;;0.60;99.90;;;;;;5004872;28;20455;-78
2023/03/04 02:49:28;;;;;;;33.60;18.43;;;0.50;99.90;;;;;;4998059;28;20532;-78
2023/03/04 02:52:00;;;;;;;30.33;18.00;;;0.50;99.90;;;;;;4999809;28;20579;-78
2023/03/04 02:54:28;;;;;;;31.57;17.73;;;0.50;99.90;;;;;;5045031;28;20455;-78
2023/03/04 02:56:58;;;;;;;41.67;18.10;;;0.60;99.90;;;;;;4998391;28;20577;-78
2023/03/04 02:59:25;;;;;;;35.20;17.57;;;0.60;99.90;;;;;;5003888;28;20463;-78
2023/03/04 03:01:53;;;;;;;39.27;17.73;;;0.70;99.90;;;;;;5001903;28;20467;-78
2023/03/04 03:04:21;;;;;;;33.33;17.73;;;0.70;99.90;;;;;;5010192;28;20552;-78
2023/03/04 03:06:48;;;;;;;38.33;18.40;;;0.80;99.90;;;;;;5001821;28;20999;-78
2023/03/04 03:09:15;;;;;;;32.73;17.20;;;0.80;99.90;;;;;;5001785;28;20467;-78
2023/03/04 03:11:43;;;;;;;37.20;18.07;;;0.70;99.90;;;;;;5019317;28;20537;-78
2023/03/04 03:14:10;;;;;;;29.40;15.90;;;0.70;99.90;;;;;;5007378;28;20524;-78
2023/03/04 03:16:38;;;;;;;32.83;17.70;;;0.60;99.90;;;;;;5000067;28;20466;-78
2023/03/04 03:19:06;;;;;;;43.67;20.50;;;0.50;99.90;;;;;;5003872;28;20458;-78
2023/03/04 03:21:33;;;;;;;26.90;17.20;;;0.50;99.90;;;;;;5003499;28;20547;-78
2023/03/04 03:24:00;;;;;;;37.33;18.50;;;0.40;99.90;;;;;;5008545;28;20443;-78
2023/03/04 03:26:27;;;;;;;31.03;17.03;;;0.40;99.90;;;;;;5003393;28;20451;-78
2023/03/04 03:28:54;;;;;;;32.17;17.50;;;0.30;99.90;;;;;;5012437;28;20466;-78
2023/03/04 03:31:21;;;;;;;28.20;15.03;;;0.30;99.90;;;;;;5016074;28;20518;-78
2023/03/04 03:33:48;;;;;;;28.43;17.03;;;0.30;99.90;;;;;;5013260;28;20525;-77
2023/03/04 03:36:16;;;;;;;36.40;19.03;;;0.20;99.90;;;;;;5000461;28;20458;-78
2023/03/04 03:38:43;;;;;;;31.70;16.27;;;0.20;99.90;;;;;;5000922;28;20467;-78
2023/03/04 03:41:10;;;;;;;29.60;17.67;;;0.20;99.90;;;;;;4997055;28;20455;-78
2023/03/04 03:43:37;;;;;;;29.70;17.27;;;0.20;99.90;;;;;;5031587;28;20573;-78
2023/03/04 03:46:04;;;;;;;39.43;19.40;;;0.20;99.90;;;;;;5054741;28;20534;-78
2023/03/04 03:48:31;;;;;;;37.37;16.90;;;0.10;99.90;;;;;;4999832;28;20906;-78
2023/03/04 03:50:58;;;;;;;36.67;17.30;;;0.10;99.90;;;;;;4993002;28;21139;-78
2023/03/04 03:53:27;;;;;;;29.20;17.07;;;0.10;99.90;;;;;;5045915;28;20536;-78
2023/03/04 03:55:54;;;;;;;33.83;17.83;;;0.10;99.90;;;;;;5000733;28;20968;-78
2023/03/04 03:58:22;;;;;;;32.53;18.70;;;0.10;99.90;;;;;;4997791;28;20519;-78
2023/03/04 04:00:48;;;;;;;38.53;21.17;;;0.20;99.90;;;;;;5001975;28;20831;-78
2023/03/04 04:03:16;;;;;;;30.40;15.97;;;0.20;99.90;;;;;;5021085;28;20511;-78
2023/03/04 04:05:43;;;;;;;39.03;19.27;;;0.20;99.90;;;;;;4996239;28;20455;-78
2023/03/04 04:08:12;;;;;;;35.97;17.67;;;0.20;99.90;;;;;;5002393;28;20579;-78
2023/03/04 04:10:41;;;;;;;33.43;17.97;;;0.20;99.90;;;;;;5024024;28;20455;-78
2023/03/04 04:13:08;;;;;;;34.80;18.07;;;0.20;99.90;;;;;;5007941;28;20528;-78
2023/03/04 04:15:37;;;;;;;36.87;17.87;;;0.20;99.90;;;;;;5017078;28;20548;-78
2023/03/04 04:18:04;;;;;;;37.50;16.27;;;0.20;99.90;;;;;;4995274;28;21003;-78
2023/03/04 04:20:31;;;;;;;28.27;17.70;;;0.20;99.90;;;;;;4996333;28;20460;-78
2023/03/04 04:22:58;;;;;;;31.50;17.10;;;0.20;99.90;;;;;;5007889;28;20451;-78
2023/03/04 04:25:25;;;;;;;33.90;18.03;;;0.20;99.90;;;;;;5033815;28;20458;-78
2023/03/04 04:27:54;;;;;;;34.60;19.40;;;0.10;99.90;;;;;;5001329;28;20989;-78
2023/03/04 04:30:21;;;;;;;34.90;20.33;;;0.20;99.90;;;;;;4994669;28;20472;-78
2023/03/04 04:32:48;;;;;;;32.03;18.50;;;0.10;99.90;;;;;;4998835;28;20491;-78
2023/03/04 04:35:15;;;;;;;36.53;19.13;;;0.20;99.90;;;;;;5008233;28;20454;-78
2023/03/04 04:37:42;;;;;;;34.27;18.07;;;0.20;99.90;;;;;;4998776;28;20451;-78
2023/03/04 04:40:10;;;;;;;36.37;19.53;;;0.20;99.90;;;;;;4999626;28;20527;-78
2023/03/04 04:42:37;;;;;;;35.00;20.57;;;0.20;99.90;;;;;;4994961;28;20463;-78
2023/03/04 04:45:07;;;;;;;33.87;17.13;;;0.10;99.90;;;;;;5004044;28;20934;-78
2023/03/04 04:47:34;;;;;;;36.53;21.00;;;0.20;99.90;;;;;;5002609;28;20458;-78
2023/03/04 04:50:00;;;;;;;35.23;20.60;;;0.30;99.90;;;;;;5001034;28;21292;-78
2023/03/04 04:52:27;;;;;;;39.40;20.40;;;0.30;99.90;;;;;;5001151;28;20978;-78
2023/03/04 04:54:54;;;;;;;32.40;20.53;;;0.30;99.90;;;;;;5007590;28;20466;-78
2023/03/04 04:57:21;;;;;;;33.23;20.43;;;0.30;99.90;;;;;;5002578;28;20523;-78
2023/03/04 04:59:48;;;;;;;38.77;22.23;;;0.40;99.90;;;;;;4997672;28;20941;-78
2023/03/04 05:02:17;;;;;;;46.60;23.50;;;0.50;99.90;;;;;;5009629;28;20455;-78
2023/03/04 05:04:44;;;;;;;48.07;25.53;;;0.50;99.90;;;;;;5030285;28;20900;-78
2023/03/04 05:07:11;;;;;;;48.43;25.23;;;0.50;99.90;;;;;;5002720;28;20844;-78
2023/03/04 05:09:38;;;;;;;42.40;24.20;;;0.60;99.90;;;;;;5001311;28;20978;-78
2023/03/04 05:12:05;;;;;;;67.30;29.40;;;0.60;99.90;;;;;;4989834;28;20999;-79
2023/03/04 05:14:32;;;;;;;44.70;27.13;;;0.70;99.90;;;;;;5019018;28;21302;-79
2023/03/04 05:16:59;;;;;;;54.03;28.20;;;0.70;99.90;;;;;;5025170;28;20907;-78
2023/03/04 05:19:27;;;;;;;50.57;27.37;;;0.80;99.90;;;;;;4996730;28;21145;-79
2023/03/04 05:21:54;;;;;;;52.70;28.40;;;0.80;99.90;;;;;;4999976;28;20447;-78
2023/03/04 05:24:21;;;;;;;59.53;29.20;;;0.90;99.90;;;;;;5000410;28;20455;-79
2023/03/04 05:26:48;;;;;;;47.27;27.20;;;0.90;99.90;;;;;;4997958;28;20483;-79
2023/03/04 05:29:15;;;;;;;51.10;28.13;;;0.90;99.90;;;;;;4997165;28;20939;-79
2023/03/04 05:31:42;;;;;;;59.13;30.20;;;0.90;99.90;;;;;;5007133;28;20486;-78
2023/03/04 05:34:09;;;;;;;56.43;30.87;;;0.80;99.90;;;;;;5041660;28;20475;-79
2023/03/04 05:36:38;;;;;;;66.67;34.93;;;0.80;99.90;;;;;;4997155;28;20467;-78
2023/03/04 05:39:05;;;;;;;60.63;31.40;;;0.80;99.90;;;;;;5000702;28;20467;-81
2023/03/04 05:41:31;;;;;;;64.93;33.17;;;0.90;99.90;;;;;;4990255;28;20876;-81
2023/03/04 05:43:58;;;;;;;60.50;33.80;;;0.90;99.90;;;;;;4992057;28;20463;-81
2023/03/04 05:46:25;;;;;;;57.10;29.60;;;0.90;99.90;;;;;;5030303;28;20519;-81
2023/03/04 05:48:53;;;;;;;56.57;31.87;;;0.90;99.90;;;;;;5002268;28;21023;-79
2023/03/04 05:51:21;;;;;;;58.83;33.73;;;0.90;99.90;;;;;;5004001;28;20954;-79
2023/03/04 05:53:49;;;;;;;57.80;34.97;;;0.90;99.90;;;;;;5022270;28;20530;-79
2023/03/04 05:56:19;;;;;;;64.50;34.03;;;1.00;99.90;;;;;;5007833;28;20466;-78
2023/03/04 05:58:46;;;;;;;65.23;36.73;;;0.90;99.90;;;;;;4997812;28;20466;-79
2023/03/04 06:01:14;;;;;;;73.40;35.30;;;1.00;99.90;;;;;;5006863;28;20459;-79
2023/03/04 06:03:42;;;;;;;70.80;34.33;;;1.00;99.90;;;;;;5012169;28;20466;-78
2023/03/04 06:06:09;;;;;;;66.53;35.93;;;1.10;99.90;;;;;;5006636;28;20474;-78
2023/03/04 06:08:36;;;;;;;68.87;40.23;;;1.10;99.90;;;;;;4998273;28;20578;-78
2023/03/04 06:11:05;;;;;;;64.67;38.30;;;1.10;99.90;;;;;;5003583;28;20512;-78
2023/03/04 06:13:32;;;;;;;76.63;38.27;;;1.00;99.90;;;;;;5012947;28;20455;-78
2023/03/04 06:16:00;;;;;;;75.20;36.00;;;1.20;99.90;;;;;;5012541;28;20903;-77
2023/03/04 06:18:28;;;;;;;66.53;35.57;;;1.20;99.90;;;;;;5003514;28;21034;-78
2023/03/04 06:20:57;;;;;;;65.03;35.10;;;1.20;99.90;;;;;;5001119;28;20827;-78
2023/03/04 06:23:24;;;;;;;68.53;37.40;;;1.20;99.90;;;;;;5018984;28;20772;-78
2023/03/04 06:25:52;;;;;;;78.97;38.07;;;1.30;99.90;;;;;;5022652;28;20801;-79
2023/03/04 06:28:21;;;;;;;70.17;35.60;;;1.30;99.90;;;;;;5003316;28;20461;-79
2023/03/04 06:30:48;;;;;;;76.00;42.03;;;1.40;99.90;;;;;;5002276;28;20979;-79
2023/03/04 06:33:15;;;;;;;70.20;37.60;;;1.40;99.90;;;;;;5042672;28;21039;-79
2023/03/04 06:35:42;;;;;;;59.00;36.17;;;1.50;99.90;;;;;;5017609;28;20476;-79
2023/03/04 06:38:09;;;;;;;69.60;37.00;;;1.60;99.90;;;;;;4999588;28;20479;-80
2023/03/04 06:40:36;;;;;;;78.40;37.97;;;1.60;99.90;;;;;;4997965;28;21124;-79
2023/03/04 06:43:03;;;;;;;66.30;37.17;;;1.50;99.90;;;;;;5045729;28;20819;-78
2023/03/04 06:45:31;;;;;;;60.47;34.50;;;1.50;99.90;;;;;;5016910;28;21285;-78
2023/03/04 06:47:58;;;;;;;75.90;36.40;;;1.50;99.90;;;;;;4996535;28;21012;-78
2023/03/04 06:50:25;;;;;;;61.87;35.40;;;1.50;99.90;;;;;;4988273;28;21044;-78
2023/03/04 06:52:52;;;;;;;68.87;36.47;;;1.60;99.90;;;;;;4990179;28;20573;-79
2023/03/04 06:55:19;;;;;;;63.60;36.90;;;1.70;99.90;;;;;;5024364;28;20524;-79
2023/03/04 06:57:47;;;;;;;59.53;34.07;;;1.70;99.90;;;;;;5002907;28;20483;-79
2023/03/04 07:00:15;;;;;;;65.27;37.50;;;1.70;99.90;;;;;;5000861;28;20575;-78
2023/03/04 07:02:43;;;;;;;76.00;39.07;;;1.70;99.90;;;;;;5005954;28;20508;-78
2023/03/04 07:05:11;;;;;;;73.63;39.93;;;1.80;99.90;;;;;;5033010;28;20952;-78
2023/03/04 07:07:38;;;;;;;64.00;39.00;;;1.80;99.90;;;;;;5024235;28;20535;-78
2023/03/04 07:10:06;;;;;;;68.60;41.00;;;1.80;99.90;;;;;;4992972;28;20468;-78
2023/03/04 07:12:33;;;;;;;72.10;36.80;;;1.80;99.90;;;;;;5005229;28;20847;-78
2023/03/04 07:15:00;;;;;;;78.20;39.70;;;1.80;99.90;;;;;;5005265;28;20486;-78
2023/03/04 07:17:27;;;;;;;69.40;36.13;;;1.80;99.90;;;;;;5004978;28;20447;-79
2023/03/04 07:19:55;;;;;;;72.17;39.03;;;1.90;99.90;;;;;;4991437;28;20475;-79
2023/03/04 07:22:22;;;;;;;75.27;41.47;;;2.00;99.90;;;;;;5004689;28;20487;-79
2023/03/04 07:24:49;;;;;;;68.77;37.80;;;2.00;99.90;;;;;;5029105;28;21149;-79
2023/03/04 07:27:16;;;;;;;57.67;35.27;;;2.10;99.90;;;;;;5001853;28;20520;-78
2023/03/04 07:29:43;;;;;;;65.43;38.40;;;2.20;99.90;;;;;;5002272;28;20522;-79
2023/03/04 07:32:10;;;;;;;60.73;33.97;;;2.20;99.90;;;;;;4998170;28;20570;-79
2023/03/04 07:34:37;;;;;;;62.40;34.93;;;2.30;99.90;;;;;;5024082;28;20462;-79
2023/03/04 07:37:05;;;;;;;56.50;33.70;;;2.30;99.90;;;;;;4996860;28;20455;-79
2023/03/04 07:39:32;;;;;;;55.53;35.00;;;2.40;99.90;;;;;;5003174;28;20514;-79
2023/03/04 07:41:59;;;;;;;50.13;31.37;;;2.50;99.90;;;;;;4992371;28;20467;-79
2023/03/04 07:44:26;;;;;;;59.27;33.67;;;2.70;99.90;;;;;;5006156;28;20526;-79
2023/03/04 07:46:53;;;;;;;57.53;30.70;;;2.80;99.90;;;;;;5012312;28;20446;-78
2023/03/04 07:49:20;;;;;;;45.97;29.63;;;2.80;99.90;;;;;;4994343;28;21071;-78
2023/03/04 07:51:47;;;;;;;46.37;30.80;;;3.00;99.90;;;;;;5001969;28;20531;-79
2023/03/04 07:54:18;;;;;;;41.97;25.67;;;3.10;99.90;;;;;;5000523;28;20455;-79
2023/03/04 07:56:46;;;;;;;47.63;28.03;;;3.20;99.90;;;;;;5010144;28;20493;-79
2023/03/04 07:59:13;;;;;;;43.10;27.20;;;3.30;99.90;;;;;;5000464;28;20528;-79
2023/03/04 08:01:40;;;;;;;44.43;26.37;;;3.50;99.90;;;;;;5000070;28;20509;-79
2023/03/04 08:04:08;;;;;;;41.17;24.43;;;3.60;99.90;;;;;;4996096;28;20463;-79
2023/03/04 08:06:35;;;;;;;42.73;24.07;;;3.70;99.90;;;;;;5053367;28;20520;-79
2023/03/04 08:09:05;;;;;;;41.10;23.77;;;3.80;99.90;;;;;;5000057;28;20482;-79
2023/03/04 08:11:35;;;;;;;31.67;20.53;;;3.90;99.90;;;;;;5000784;28;20469;-79
2023/03/04 08:14:02;;;;;;;30.67;20.20;;;4.00;99.90;;;;;;4997489;28;20505;-79
2023/03/04 08:16:29;;;;;;;33.87;22.23;;;4.00;99.90;;;;;;5027683;28;21084;-79
2023/03/04 08:18:58;;;;;;;33.20;19.80;;;4.10;99.90;;;;;;5000115;28;20564;-79
2023/03/04 08:21:26;;;;;;;29.40;19.87;;;4.10;99.90;;;;;;5000569;28;20471;-79
2023/03/04 08:23:54;;;;;;;29.13;18.10;;;4.20;99.90;;;;;;5000898;28;20456;-79
2023/03/04 08:26:23;;;;;;;34.80;18.73;;;4.20;99.90;;;;;;5003186;28;20490;-79
2023/03/04 08:28:53;;;;;;;30.00;18.70;;;4.20;99.90;;;;;;5015757;28;20902;-79
2023/03/04 08:31:20;;;;;;;33.53;20.37;;;4.20;99.90;;;;;;5010212;28;20590;-79
2023/03/04 08:33:48;;;;;;;30.30;19.97;;;4.30;99.90;;;;;;5001918;28;20523;-79
2023/03/04 08:36:16;;;;;;;33.63;22.50;;;4.30;99.90;;;;;;5002075;28;20471;-79
2023/03/04 08:38:43;;;;;;;35.03;20.30;;;4.20;99.90;;;;;;5002768;28;20803;-79
2023/03/04 08:41:10;;;;;;;39.20;19.97;;;4.20;99.90;;;;;;5008626;28;20541;-79
2023/03/04 08:43:37;;;;;;;34.07;19.90;;;4.20;99.90;;;;;;5006173;28;20455;-79
2023/03/04 08:46:06;;;;;;;33.53;22.43;;;4.20;99.90;;;;;;5006728;28;20467;-79
2023/03/04 08:48:33;;;;;;;40.10;21.03;;;4.20;99.90;;;;;;5001459;28;20459;-79
2023/03/04 08:51:00;;;;;;;27.07;18.07;;;4.20;99.90;;;;;;5008992;28;20466;-79
2023/03/04 08:53:27;;;;;;;30.17;20.47;;;4.20;99.90;;;;;;4994122;28;20486;-79
2023/03/04 08:55:54;;;;;;;35.07;20.40;;;4.20;99.90;;;;;;5010578;28;20451;-79
2023/03/04 08:58:21;;;;;;;27.70;17.70;;;4.20;99.90;;;;;;5000500;28;20459;-79
2023/03/04 09:00:51;;;;;;;31.00;18.90;;;4.20;99.90;;;;;;5005880;28;20515;-79
2023/03/04 09:03:20;;;;;;;32.47;17.37;;;4.20;99.90;;;;;;4997331;28;20486;-79
2023/03/04 09:05:48;;;;;;;21.97;15.10;;;4.30;99.90;;;;;;5025684;28;20490;-79
2023/03/04 09:08:15;;;;;;;23.53;15.13;;;4.40;99.90;;;;;;5002135;28;20458;-79
2023/03/04 09:10:43;;;;;;;26.40;14.83;;;4.40;99.90;;;;;;5006220;28;20486;-79
2023/03/04 09:13:11;;;;;;;21.37;14.03;;;4.40;99.90;;;;;;4996320;28;20613;-79
2023/03/04 09:15:38;;;;;;;25.40;15.77;;;4.50;99.90;;;;;;5008413;28;20489;-79
2023/03/04 09:18:05;;;;;;;19.73;10.33;;;4.60;99.90;;;;;;4994361;28;20927;-79
2023/03/04 09:20:34;;;;;;;15.07;11.53;;;4.80;99.90;;;;;;5001278;28;20518;-79
2023/03/04 09:23:01;;;;;;;22.87;13.10;;;5.10;99.90;;;;;;5001442;28;20447;-79
2023/03/04 09:25:28;;;;;;;17.90;12.43;;;5.30;99.90;;;;;;5007658;28;20523;-79
2023/03/04 09:27:55;;;;;;;26.50;14.53;;;5.40;99.90;;;;;;5005113;28;20459;-79
2023/03/04 09:30:22;;;;;;;19.33;11.27;;;5.60;99.90;;;;;;5009681;28;20547;-79
2023/03/04 09:32:50;;;;;;;14.77;10.07;;;5.70;99.90;;;;;;5006137;28;20595;-79
2023/03/04 09:35:17;;;;;;;19.13;12.17;;;5.60;99.90;;;;;;5019846;28;20451;-79
2023/03/04 09:37:45;;;;;;;17.90;12.30;;;5.70;99.90;;;;;;5001892;28;20478;-80
2023/03/04 09:40:18;;;;;;;18.17;12.47;;;5.80;99.90;;;;;;5003530;28;20521;-79
2023/03/04 09:42:50;;;;;;;18.60;12.90;;;5.90;99.90;;;;;;5001372;28;20446;-79
2023/03/04 09:45:20;;;;;;;20.63;11.20;;;6.00;99.90;;;;;;5031643;28;20446;-80
2023/03/04 09:47:50;;;;;;;18.50;12.07;;;6.10;99.90;;;;;;5001516;28;20527;-79
2023/03/04 09:50:18;;;;;;;16.80;10.27;;;6.00;99.90;;;;;;5008992;28;21316;-79
2023/03/04 09:53:01;;;;;;;17.07;9.40;;;6.20;99.90;;;;;;5020595;28;20590;-79
2023/03/04 09:55:33;;;;;;;14.47;9.77;;;6.20;99.90;;;;;;5005937;28;20911;-80
2023/03/04 09:58:06;;;;;;;16.67;9.80;;;6.30;99.90;;;;;;4996818;28;20451;-80
2023/03/04 10:00:39;;;;;;;15.67;10.27;;;6.40;99.90;;;;;;5019555;28;20495;-79
2023/03/04 10:03:15;;;;;;;16.60;11.73;;;6.70;99.90;;;;;;4999729;28;20525;-79
2023/03/04 10:05:49;;;;;;;15.10;9.20;;;6.80;99.90;;;;;;5016178;28;20446;-79
2023/03/04 10:08:38;;;;;;;19.03;12.13;;;6.70;99.90;;;;;;5004349;28;20597;-79
2023/03/04 10:11:11;;;;;;;16.67;9.80;;;6.80;99.90;;;;;;5030093;28;20551;-79
2023/03/04 10:13:45;;;;;;;15.00;9.90;;;6.70;99.90;;;;;;5005443;28;21027;-79
2023/03/04 10:16:18;;;;;;;15.37;10.00;;;6.80;99.90;;;;;;5013473;28;20552;-79
2023/03/04 10:18:50;;;;;;;13.90;10.13;;;6.80;99.90;;;;;;5000601;28;20451;-79
2023/03/04 10:21:23;;;;;;;19.63;10.33;;;6.90;99.90;;;;;;5000468;28;21779;-79
2023/03/04 10:23:53;;;;;;;18.93;11.90;;;7.10;99.90;;;;;;5005469;28;20453;-79
2023/03/04 10:26:21;;;;;;;13.40;9.60;;;7.40;99.90;;;;;;4998825;28;20463;-79
2023/03/04 10:28:49;;;;;;;20.57;12.73;;;7.40;99.90;;;;;;5004894;28;20516;-79
2023/03/04 10:31:22;;;;;;;16.93;11.90;;;7.30;99.90;;;;;;4996096;28;20495;-79
2023/03/04 10:33:49;;;;;;;17.40;11.67;;;7.30;99.90;;;;;;5006077;28;20500;-78
2023/03/04 10:36:36;;;;;;;15.97;10.17;;;7.20;99.90;;;;;;5033574;28;20863;-79
2023/03/04 10:39:08;;;;;;;14.87;10.53;;;7.40;99.90;;;;;;5001005;28;20504;-79
2023/03/04 10:41:35;;;;;;;17.30;12.13;;;7.30;99.90;;;;;;5018312;28;20473;-80
2023/03/04 10:44:04;;;;;;;14.10;10.10;;;7.30;99.90;;;;;;5003167;28;20511;-79
2023/03/04 10:46:32;;;;;;;15.13;11.23;;;7.40;99.90;;;;;;5008276;28;20544;-79
2023/03/04 10:48:59;;;;;;;14.47;9.80;;;7.40;99.90;;;;;;5016483;28;20454;-80
2023/03/04 10:51:28;;;;;;;14.63;10.47;;;7.30;99.90;;;;;;5020790;28;20939;-80
2023/03/04 10:53:58;;;;;;;18.43;10.73;;;7.50;99.90;;;;;;4994128;28;20816;-80
2023/03/04 10:56:36;;;;;;;13.70;10.77;;;7.70;99.90;;;;;;5031409;28;20515;-80
2023/03/04 10:59:40;;;;;;;15.80;10.23;;;7.70;99.90;;;;;;4999386;28;20475;-79
2023/03/04 11:02:21;;;;;;;14.00;8.97;;;7.80;99.90;;;;;;4990853;28;20959;-80
2023/03/04 11:04:54;;;;;;;14.50;9.70;;;7.70;99.90;;;;;;4992684;28;20482;-80
2023/03/04 11:07:22;;;;;;;13.10;9.00;;;7.80;99.90;;;;;;5004840;28;20491;-80
2023/03/04 11:09:49;;;;;;;14.40;11.00;;;7.80;99.90;;;;;;5010132;28;20491;-80
2023/03/04 11:12:20;;;;;;;16.63;10.17;;;7.80;99.90;;;;;;4997076;28;20463;-80
2023/03/04 11:14:49;;;;;;;15.97;9.63;;;7.80;99.90;;;;;;4990820;28;20507;-79
2023/03/04 11:17:19;;;;;;;15.07;9.67;;;7.80;99.90;;;;;;4999369;28;20495;-80
2023/03/04 11:19:50;;;;;;;15.80;10.77;;;7.70;99.90;;;;;;4994235;28;20468;-80
2023/03/04 11:22:20;;;;;;;14.70;8.87;;;7.80;99.90;;;;;;4995198;28;20544;-79
2023/03/04 11:24:56;;;;;;;18.60;12.13;;;8.10;99.90;;;;;;4996491;28;20492;-79
2023/03/04 11:27:34;;;;;;;14.83;10.07;;;8.40;99.90;;;;;;5016733;28;20450;-80
2023/03/04 11:30:16;;;;;;;15.60;10.63;;;8.30;99.90;;;;;;5020701;28;20458;-80
2023/03/04 11:32:46;;;;;;;16.13;10.47;;;8.20;99.90;;;;;;5024922;28;20464;-80
2023/03/04 11:35:22;;;;;;;16.50;11.33;;;8.20;99.90;;;;;;5008578;28;20595;-80
2023/03/04 11:37:58;;;;;;;18.03;10.20;;;8.40;99.90;;;;;;5001620;28;20507;-80
2023/03/04 11:40:33;;;;;;;13.23;9.73;;;8.70;99.90;;;;;;5006320;28;20499;-80
2023/03/04 11:43:07;;;;;;;18.10;10.70;;;8.70;99.90;;;;;;5002057;28;20463;-80
2023/03/04 11:45:58;;;;;;;14.33;9.90;;;9.00;99.90;;;;;;5004756;28;20480;-80
2023/03/04 11:48:38;;;;;;;16.37;10.00;;;8.90;99.90;;;;;;5002797;28;20469;-80
2023/03/04 11:51:09;;;;;;;15.13;11.53;;;8.90;99.90;;;;;;5004589;28;20463;-80
2023/03/04 11:53:44;;;;;;;17.67;11.73;;;8.70;99.90;;;;;;4995613;28;20515;-80
2023/03/04 11:56:26;;;;;;;13.07;8.90;;;8.80;99.90;;;;;;5001722;28;20524;-80
2023/03/04 11:59:27;;;;;;;15.53;9.47;;;8.60;99.90;;;;;;5000692;28;21366;-80
2023/03/04 12:02:12;;;;;;;17.83;10.63;;;8.60;99.90;;;;;;5011352;28;20482;-80
2023/03/04 12:05:14;;;;;;;16.10;10.37;;;8.70;99.90;;;;;;5000940;28;20467;-81
2023/03/04 12:08:11;;;;;;;19.70;11.03;;;9.00;99.90;;;;;;4994631;28;20488;-85
2023/03/04 12:10:44;;;;;;;14.07;11.40;;;8.90;99.90;;;;;;5004444;28;20495;-83
2023/03/04 12:13:40;;;;;;;14.63;10.93;;;9.10;99.90;;;;;;4987491;28;20484;-81
2023/03/04 12:16:26;;;;;;;14.87;9.47;;;9.00;99.90;;;;;;4986552;28;20513;-81
2023/03/04 12:19:06;;;;;;;18.40;12.37;;;9.20;99.90;;;;;;4985615;28;20468;-81
2023/03/04 12:21:57;;;;;;;16.10;10.53;;;9.30;99.90;;;;;;4989191;28;20448;-82
2023/03/04 12:24:49;;;;;;;15.00;10.93;;;9.40;99.90;;;;;;4997348;28;20455;-82
2023/03/04 12:27:24;;;;;;;13.67;10.20;;;9.40;99.50;;;;;;5008610;28;20938;-82
2023/03/04 12:30:01;;;;;;;18.13;9.23;;;9.30;98.90;;;;;;5007847;28;20463;-82
2023/03/04 12:32:40;;;;;;;14.53;11.53;;;9.50;99.90;;;;;;5048733;28;20441;-82
2023/03/04 12:35:31;;;;;;;16.90;11.67;;;9.60;99.90;;;;;;5010273;28;20836;-82
2023/03/04 12:38:16;;;;;;;15.90;10.70;;;9.60;99.10;;;;;;4996245;28;20490;-82
2023/03/04 12:40:49;;;;;;;14.07;10.77;;;9.50;98.40;;;;;;4998174;28;20464;-82
2023/03/04 12:43:38;;;;;;;15.70;10.63;;;9.50;98.80;;;;;;5000703;28;20460;-82
2023/03/04 12:46:18;;;;;;;19.50;12.00;;;9.50;97.00;;;;;;5003820;28;20462;-82
2023/03/04 12:48:55;;;;;;;18.57;11.47;;;9.60;99.90;;;;;;5047784;28;20459;-82
2023/03/04 12:51:30;;;;;;;14.90;10.33;;;9.30;97.80;;;;;;5028446;28;20987;-82